createdAt,value
2023-05-22T00:00:24.110Z,476.00
2023-05-22T00:01:24.122Z,476.00
2023-05-22T00:02:24.163Z,478.00
2023-05-22T00:03:24.250Z,479.00
2023-05-22T00:04:24.259Z,480.00
2023-05-22T00:05:24.358Z,482.00
2023-05-22T00:06:24.366Z,480.00
2023-05-22T00:07:24.443Z,480.00
2023-05-22T00:08:24.482Z,478.00
2023-05-22T00:09:24.568Z,480.00
2023-05-22T00:10:24.603Z,479.00
2023-05-22T00:11:24.713Z,479.00
2023-05-22T00:12:24.706Z,477.00
2023-05-22T00:13:24.765Z,478.00
2023-05-22T00:14:24.754Z,477.00
2023-05-22T00:15:24.797Z,475.00
2023-05-22T00:16:24.828Z,476.00
2023-05-22T00:17:24.951Z,477.00
2023-05-22T00:18:24.896Z,477.00
2023-05-22T00:19:24.930Z,480.00
2023-05-22T00:20:24.918Z,480.00
2023-05-22T00:21:24.947Z,480.00
2023-05-22T00:22:24.967Z,481.00
2023-05-22T00:23:25.014Z,482.00
2023-05-22T00:24:25.074Z,484.00
2023-05-22T00:25:25.275Z,482.00
2023-05-22T00:26:25.185Z,482.00
2023-05-22T00:27:25.253Z,483.00
2023-05-22T00:28:25.310Z,484.00
2023-05-22T00:29:25.321Z,483.00
2023-05-22T00:30:25.297Z,483.00
2023-05-22T00:31:25.348Z,482.00
2023-05-22T00:32:25.479Z,482.00
2023-05-22T00:33:25.466Z,480.00
2023-05-22T00:34:25.547Z,481.00
2023-05-22T00:35:25.638Z,480.00
2023-05-22T00:36:25.646Z,480.00
2023-05-22T00:37:25.703Z,480.00
2023-05-22T00:38:25.767Z,482.00
2023-05-22T00:39:25.783Z,481.00
2023-05-22T00:40:25.802Z,481.00
2023-05-22T00:41:25.902Z,479.00
2023-05-22T00:42:25.831Z,476.00
2023-05-22T00:43:25.899Z,474.00
2023-05-22T00:44:25.906Z,474.00
2023-05-22T00:45:25.967Z,477.00
2023-05-22T00:46:26.137Z,477.00
2023-05-22T00:47:26.000Z,480.00
2023-05-22T00:48:26.017Z,481.00
2023-05-22T00:49:25.983Z,484.00
2023-05-22T00:50:26.020Z,484.00
2023-05-22T00:51:25.993Z,485.00
2023-05-22T00:52:26.056Z,484.00
2023-05-22T00:53:26.267Z,484.00
2023-05-22T00:54:26.122Z,482.00
2023-05-22T00:55:26.128Z,481.00
2023-05-22T00:56:26.163Z,479.00
2023-05-22T00:57:26.296Z,483.00
2023-05-22T00:58:26.253Z,485.00
2023-05-22T00:59:26.237Z,485.00
2023-05-22T01:00:26.238Z,484.00
2023-05-22T01:01:26.343Z,482.00
2023-05-22T01:02:26.250Z,481.00
2023-05-22T01:03:27.230Z,480.00
2023-05-22T01:04:26.271Z,480.00
2023-05-22T01:05:26.243Z,479.00
2023-05-22T01:06:26.253Z,480.00
2023-05-22T01:07:26.252Z,479.00
2023-05-22T01:08:26.280Z,480.00
2023-05-22T01:09:26.280Z,479.00
2023-05-22T01:10:26.310Z,480.00
2023-05-22T01:11:26.364Z,479.00
2023-05-22T01:12:26.422Z,481.00
2023-05-22T01:13:26.498Z,483.00
2023-05-22T01:14:26.475Z,483.00
2023-05-22T01:15:26.480Z,484.00
2023-05-22T01:16:26.617Z,481.00
2023-05-22T01:17:26.532Z,480.00
2023-05-22T01:18:26.480Z,481.00
2023-05-22T01:19:26.552Z,481.00
2023-05-22T01:20:26.556Z,482.00
2023-05-22T01:21:26.606Z,481.00
2023-05-22T01:22:26.705Z,480.00
2023-05-22T01:23:26.748Z,482.00
2023-05-22T01:24:26.738Z,480.00
2023-05-22T01:25:26.750Z,481.00
2023-05-22T01:26:26.750Z,480.00
2023-05-22T01:27:26.754Z,482.00
2023-05-22T01:28:26.756Z,481.00
2023-05-22T01:29:26.758Z,480.00
2023-05-22T01:30:26.772Z,475.00
2023-05-22T01:31:26.783Z,475.00
2023-05-22T01:32:26.831Z,474.00
2023-05-22T01:33:26.961Z,474.00
2023-05-22T01:34:26.780Z,473.00
2023-05-22T01:35:26.782Z,476.00
2023-05-22T01:36:26.788Z,477.00
2023-05-22T01:37:26.784Z,477.00
2023-05-22T01:38:26.785Z,479.00
2023-05-22T01:39:26.809Z,480.00
2023-05-22T01:40:26.876Z,481.00
2023-05-22T01:41:26.939Z,481.00
2023-05-22T01:42:26.983Z,479.00
2023-05-22T01:43:26.984Z,480.00
2023-05-22T01:44:26.975Z,479.00
2023-05-22T01:45:27.043Z,480.00
2023-05-22T01:46:27.015Z,478.00
2023-05-22T01:47:27.045Z,478.00
2023-05-22T01:48:26.982Z,476.00
2023-05-22T01:49:27.010Z,475.00
2023-05-22T01:50:26.990Z,474.00
2023-05-22T01:51:26.982Z,473.00
2023-05-22T01:52:26.985Z,473.00
2023-05-22T01:53:26.979Z,473.00
2023-05-22T01:54:27.005Z,473.00
2023-05-22T01:55:26.996Z,476.00
2023-05-22T01:56:26.993Z,476.00
2023-05-22T01:57:27.006Z,475.00
2023-05-22T01:58:26.994Z,475.00
2023-05-22T01:59:27.024Z,477.00
2023-05-22T02:00:26.997Z,474.00
2023-05-22T02:01:27.034Z,473.00
2023-05-22T02:02:27.080Z,473.00
2023-05-22T02:03:27.281Z,473.00
2023-05-22T02:04:27.014Z,473.00
2023-05-22T02:05:27.040Z,472.00
2023-05-22T02:06:27.022Z,473.00
2023-05-22T02:07:27.034Z,472.00
2023-05-22T02:08:27.036Z,472.00
2023-05-22T02:09:27.094Z,473.00
2023-05-22T02:10:27.043Z,471.00
2023-05-22T02:11:27.091Z,469.00
2023-05-22T02:12:27.134Z,470.00
2023-05-22T02:13:27.130Z,472.00
2023-05-22T02:14:27.124Z,471.00
2023-05-22T02:15:27.217Z,474.00
2023-05-22T02:16:27.137Z,472.00
2023-05-22T02:17:27.198Z,473.00
2023-05-22T02:18:27.140Z,476.00
2023-05-22T02:19:27.182Z,480.00
2023-05-22T02:20:27.176Z,482.00
2023-05-22T02:21:27.229Z,478.00
2023-05-22T02:22:27.228Z,478.00
2023-05-22T02:23:27.253Z,479.00
2023-05-22T02:24:27.253Z,479.00
2023-05-22T02:25:27.262Z,480.00
2023-05-22T02:26:27.273Z,482.00
2023-05-22T02:27:27.283Z,480.00
2023-05-22T02:28:27.305Z,479.00
2023-05-22T02:29:27.324Z,480.00
2023-05-22T02:30:27.315Z,478.00
2023-05-22T02:31:27.372Z,479.00
2023-05-22T02:32:27.364Z,478.00
2023-05-22T02:33:27.367Z,479.00
2023-05-22T02:34:27.343Z,478.00
2023-05-22T02:35:27.388Z,477.00
2023-05-22T02:36:27.376Z,474.00
2023-05-22T02:37:27.366Z,474.00
2023-05-22T02:38:27.359Z,473.00
2023-05-22T02:39:27.382Z,474.00
2023-05-22T02:40:27.376Z,474.00
2023-05-22T02:41:27.416Z,476.00
2023-05-22T02:42:27.410Z,476.00
2023-05-22T02:43:27.368Z,475.00
2023-05-22T02:44:27.388Z,474.00
2023-05-22T02:45:27.372Z,474.00
2023-05-22T02:46:27.419Z,470.00
2023-05-22T02:47:27.495Z,471.00
2023-05-22T02:48:27.431Z,473.00
2023-05-22T02:49:27.470Z,472.00
2023-05-22T02:50:27.455Z,474.00
2023-05-22T02:51:27.449Z,476.00
2023-05-22T02:52:27.454Z,477.00
2023-05-22T02:53:27.517Z,477.00
2023-05-22T02:54:27.518Z,479.00
2023-05-22T02:55:27.518Z,479.00
2023-05-22T02:56:27.517Z,479.00
2023-05-22T02:57:27.525Z,481.00
2023-05-22T02:58:27.634Z,482.00
2023-05-22T02:59:27.622Z,481.00
2023-05-22T03:00:27.637Z,483.00
2023-05-22T03:01:27.695Z,486.00
2023-05-22T03:02:27.668Z,486.00
2023-05-22T03:03:27.737Z,486.00
2023-05-22T03:04:27.656Z,486.00
2023-05-22T03:05:27.652Z,485.00
2023-05-22T03:06:27.654Z,483.00
2023-05-22T03:07:27.673Z,484.00
2023-05-22T03:08:27.675Z,485.00
2023-05-22T03:09:27.705Z,488.00
2023-05-22T03:10:27.703Z,489.00
2023-05-22T03:11:27.715Z,489.00
2023-05-22T03:12:27.730Z,490.00
2023-05-22T03:13:27.718Z,487.00
2023-05-22T03:14:27.716Z,488.00
2023-05-22T03:15:27.717Z,489.00
2023-05-22T03:16:27.737Z,491.00
2023-05-22T03:17:27.782Z,490.00
2023-05-22T03:18:27.984Z,489.00
2023-05-22T03:19:27.825Z,490.00
2023-05-22T03:20:27.797Z,489.00
2023-05-22T03:21:27.802Z,490.00
2023-05-22T03:22:27.807Z,489.00
2023-05-22T03:23:27.803Z,488.00
2023-05-22T03:24:27.801Z,490.00
2023-05-22T03:25:27.828Z,490.00
2023-05-22T03:26:27.803Z,488.00
2023-05-22T03:27:27.820Z,489.00
2023-05-22T03:28:27.817Z,487.00
2023-05-22T03:29:27.820Z,488.00
2023-05-22T03:30:27.829Z,491.00
2023-05-22T03:31:27.832Z,489.00
2023-05-22T03:32:27.875Z,488.00
2023-05-22T03:33:27.868Z,486.00
2023-05-22T03:34:27.854Z,485.00
2023-05-22T03:35:27.849Z,484.00
2023-05-22T03:36:27.857Z,484.00
2023-05-22T03:37:27.908Z,481.00
2023-05-22T03:38:27.917Z,481.00
2023-05-22T03:39:27.926Z,482.00
2023-05-22T03:40:27.910Z,482.00
2023-05-22T03:41:27.985Z,484.00
2023-05-22T03:42:27.928Z,483.00
2023-05-22T03:43:27.923Z,483.00
2023-05-22T03:44:27.937Z,483.00
2023-05-22T03:45:27.937Z,482.00
2023-05-22T03:46:28.015Z,485.00
2023-05-22T03:47:27.965Z,486.00
2023-05-22T03:48:27.964Z,487.00
2023-05-22T03:49:27.954Z,489.00
2023-05-22T03:50:27.951Z,488.00
2023-05-22T03:51:27.957Z,486.00
2023-05-22T03:52:27.970Z,487.00
2023-05-22T03:53:27.964Z,487.00
2023-05-22T03:54:27.975Z,486.00
2023-05-22T03:55:27.982Z,488.00
2023-05-22T03:56:27.987Z,489.00
2023-05-22T03:57:28.022Z,491.00
2023-05-22T03:58:27.982Z,492.00
2023-05-22T03:59:28.003Z,494.00
2023-05-22T04:00:27.990Z,492.00
2023-05-22T04:01:28.056Z,492.00
2023-05-22T04:02:28.081Z,490.00
2023-05-22T04:03:28.110Z,491.00
2023-05-22T04:04:28.007Z,491.00
2023-05-22T04:05:28.144Z,489.00
2023-05-22T04:06:28.028Z,487.00
2023-05-22T04:07:28.026Z,486.00
2023-05-22T04:08:28.027Z,484.00
2023-05-22T04:09:28.033Z,482.00
2023-05-22T04:10:28.036Z,481.00
2023-05-22T04:11:28.039Z,479.00
2023-05-22T04:12:28.034Z,480.00
2023-05-22T04:13:28.060Z,480.00
2023-05-22T04:14:28.031Z,482.00
2023-05-22T04:15:28.036Z,484.00
2023-05-22T04:16:28.101Z,486.00
2023-05-22T04:17:28.145Z,485.00
2023-05-22T04:18:28.054Z,485.00
2023-05-22T04:19:28.147Z,487.00
2023-05-22T04:20:28.070Z,486.00
2023-05-22T04:21:28.058Z,484.00
2023-05-22T04:22:28.078Z,484.00
2023-05-22T04:23:28.069Z,482.00
2023-05-22T04:24:28.072Z,483.00
2023-05-22T04:25:28.090Z,483.00
2023-05-22T04:26:28.086Z,485.00
2023-05-22T04:27:28.087Z,486.00
2023-05-22T04:28:28.082Z,484.00
2023-05-22T04:29:28.117Z,486.00
2023-05-22T04:30:28.093Z,485.00
2023-05-22T04:31:28.201Z,488.00
2023-05-22T04:32:28.130Z,488.00
2023-05-22T04:33:28.117Z,490.00
2023-05-22T04:34:28.113Z,489.00
2023-05-22T04:35:28.128Z,490.00
2023-05-22T04:36:28.155Z,491.00
2023-05-22T04:37:28.115Z,490.00
2023-05-22T04:38:28.123Z,489.00
2023-05-22T04:39:28.115Z,489.00
2023-05-22T04:40:28.130Z,491.00
2023-05-22T04:41:28.124Z,490.00
2023-05-22T04:42:28.113Z,491.00
2023-05-22T04:43:28.103Z,489.00
2023-05-22T04:44:28.112Z,486.00
2023-05-22T04:45:28.159Z,486.00
2023-05-22T04:46:28.210Z,489.00
2023-05-22T04:47:28.220Z,492.00
2023-05-22T04:48:28.164Z,491.00
2023-05-22T04:49:28.220Z,492.00
2023-05-22T04:50:28.181Z,491.00
2023-05-22T04:51:28.173Z,493.00
2023-05-22T04:52:28.174Z,493.00
2023-05-22T04:53:28.179Z,493.00
2023-05-22T04:54:28.179Z,492.00
2023-05-22T04:55:28.190Z,493.00
2023-05-22T04:56:36.370Z,495.00
2023-05-22T04:57:28.182Z,493.00
2023-05-22T04:58:28.177Z,494.00
2023-05-22T04:59:28.163Z,495.00
2023-05-22T05:00:28.200Z,495.00
2023-05-22T05:01:29.483Z,494.00
2023-05-22T05:02:28.181Z,496.00
2023-05-22T05:03:28.177Z,494.00
2023-05-22T05:04:28.133Z,493.00
2023-05-22T05:05:28.230Z,494.00
2023-05-22T05:06:28.201Z,494.00
2023-05-22T05:07:28.391Z,496.00
2023-05-22T05:08:28.165Z,496.00
2023-05-22T05:09:28.165Z,493.00
2023-05-22T05:10:28.086Z,491.00
2023-05-22T05:11:28.085Z,489.00
2023-05-22T05:12:28.071Z,489.00
2023-05-22T05:13:28.084Z,490.00
2023-05-22T05:14:28.396Z,487.00
2023-05-22T05:15:28.089Z,487.00
2023-05-22T05:16:28.099Z,488.00
2023-05-22T05:17:28.119Z,487.00
2023-05-22T05:18:28.032Z,488.00
2023-05-22T05:19:28.179Z,489.00
2023-05-22T05:20:28.023Z,489.00
2023-05-22T05:21:28.176Z,487.00
2023-05-22T05:22:28.012Z,490.00
2023-05-22T05:23:27.995Z,493.00
2023-05-22T05:24:27.991Z,492.00
2023-05-22T05:25:28.012Z,493.00
2023-05-22T05:26:27.968Z,492.00
2023-05-22T05:27:27.971Z,495.00
2023-05-22T05:28:27.978Z,496.00
2023-05-22T05:29:27.952Z,493.00
2023-05-22T05:30:27.943Z,493.00
2023-05-22T05:31:28.440Z,492.00
2023-05-22T05:32:27.990Z,496.00
2023-05-22T05:33:27.942Z,499.00
2023-05-22T05:34:27.924Z,499.00
2023-05-22T05:35:27.942Z,506.00
2023-05-22T05:36:27.920Z,507.00
2023-05-22T05:37:27.897Z,510.00
2023-05-22T05:38:27.902Z,510.00
2023-05-22T05:39:27.944Z,510.00
2023-05-22T05:40:27.886Z,512.00
2023-05-22T05:41:27.874Z,516.00
2023-05-22T05:42:27.863Z,518.00
2023-05-22T05:43:27.895Z,520.00
2023-05-22T05:44:27.962Z,522.00
2023-05-22T05:45:27.885Z,526.00
2023-05-22T05:46:27.890Z,527.00
2023-05-22T05:47:27.965Z,531.00
2023-05-22T05:48:27.818Z,532.00
2023-05-22T05:49:27.936Z,535.00
2023-05-22T05:50:27.815Z,537.00
2023-05-22T05:51:27.819Z,541.00
2023-05-22T05:52:27.911Z,543.00
2023-05-22T05:53:27.786Z,547.00
2023-05-22T05:54:27.783Z,554.00
2023-05-22T05:55:27.850Z,561.00
2023-05-22T05:56:27.913Z,565.00
2023-05-22T05:57:27.765Z,616.00
2023-05-22T05:58:27.787Z,636.00
2023-05-22T06:00:30.959Z,623.00
2023-05-22T06:01:35.434Z,620.00
2023-05-22T06:02:27.872Z,617.00
2023-05-22T06:03:35.338Z,619.00
2023-05-22T06:06:46.951Z,629.00
2023-05-22T06:08:02.391Z,630.00
2023-05-22T06:08:47.821Z,629.00
2023-05-22T06:09:50.191Z,628.00
2023-05-22T06:10:46.792Z,634.00
2023-05-22T06:13:02.368Z,638.00
2023-05-22T06:13:49.955Z,642.00
2023-05-22T06:14:46.751Z,641.00
2023-05-22T06:16:19.212Z,641.00
2023-05-22T06:16:46.807Z,640.00
2023-05-22T06:17:46.882Z,642.00
2023-05-22T06:18:45.838Z,642.00
2023-05-22T06:19:46.863Z,642.00
2023-05-22T06:20:46.772Z,642.00
2023-05-22T06:21:46.997Z,640.00
2023-05-22T06:22:46.813Z,639.00
2023-05-22T06:23:46.683Z,638.00
2023-05-22T06:24:46.741Z,640.00
2023-05-22T06:25:46.695Z,641.00
2023-05-22T06:26:47.016Z,639.00
2023-05-22T06:27:46.670Z,636.00
2023-05-22T06:28:46.671Z,635.00
2023-05-22T06:29:46.659Z,635.00
2023-05-22T06:30:47.031Z,633.00
2023-05-22T06:31:46.705Z,632.00
2023-05-22T06:32:47.128Z,632.00
2023-05-22T06:33:46.728Z,633.00
2023-05-22T06:34:46.629Z,632.00
2023-05-22T06:35:46.627Z,632.00
2023-05-22T06:36:47.121Z,633.00
2023-05-22T06:37:46.602Z,632.00
2023-05-22T06:38:54.035Z,631.00
2023-05-22T06:39:46.643Z,629.00
2023-05-22T06:40:47.063Z,627.00
2023-05-22T06:41:46.593Z,629.00
2023-05-22T06:42:46.609Z,628.00
2023-05-22T06:43:46.656Z,628.00
2023-05-22T06:44:46.630Z,626.00
2023-05-22T06:45:46.679Z,625.00
2023-05-22T06:46:46.571Z,624.00
2023-05-22T06:47:47.117Z,622.00
2023-05-22T06:48:46.557Z,618.00
2023-05-22T06:49:46.554Z,617.00
2023-05-22T06:50:46.544Z,614.00
2023-05-22T06:51:46.548Z,614.00
2023-05-22T06:52:47.016Z,617.00
2023-05-22T06:53:46.529Z,619.00
2023-05-22T06:54:46.556Z,620.00
2023-05-22T06:55:46.548Z,621.00
2023-05-22T06:56:46.520Z,618.00
2023-05-22T06:57:53.917Z,615.00
2023-05-22T06:58:54.042Z,614.00
2023-05-22T06:59:46.537Z,612.00
2023-05-22T07:00:46.775Z,613.00
2023-05-22T07:01:46.549Z,613.00
2023-05-22T07:02:46.729Z,616.00
2023-05-22T07:03:46.470Z,618.00
2023-05-22T07:04:46.477Z,617.00
2023-05-22T07:05:46.594Z,617.00
2023-05-22T07:06:46.424Z,617.00
2023-05-22T07:07:46.418Z,615.00
2023-05-22T07:08:46.425Z,617.00
2023-05-22T07:09:46.844Z,619.00
2023-05-22T07:10:46.777Z,621.00
2023-05-22T07:11:46.396Z,620.00
2023-05-22T07:12:46.521Z,619.00
2023-05-22T07:13:46.379Z,618.00
2023-05-22T07:14:49.567Z,619.00
2023-05-22T07:15:46.607Z,618.00
2023-05-22T07:16:46.402Z,618.00
2023-05-22T07:17:46.612Z,619.00
2023-05-22T07:18:46.573Z,618.00
2023-05-22T07:19:46.365Z,616.00
2023-05-22T07:20:46.341Z,619.00
2023-05-22T07:21:46.595Z,619.00
2023-05-22T07:22:46.326Z,619.00
2023-05-22T07:23:46.333Z,620.00
2023-05-22T07:24:46.335Z,621.00
2023-05-22T07:25:46.310Z,619.00
2023-05-22T07:26:46.488Z,616.00
2023-05-22T07:27:46.293Z,615.00
2023-05-22T07:28:46.527Z,616.00
2023-05-22T07:29:46.283Z,616.00
2023-05-22T07:30:46.284Z,617.00
2023-05-22T07:31:46.293Z,622.00
2023-05-22T07:32:46.314Z,621.00
2023-05-22T07:33:46.527Z,621.00
2023-05-22T07:35:01.872Z,621.00
2023-05-22T07:35:46.272Z,623.00
2023-05-22T07:36:46.254Z,623.00
2023-05-22T07:37:46.236Z,625.00
2023-05-22T07:39:02.195Z,634.00
2023-05-22T07:39:53.644Z,664.00
2023-05-22T07:40:49.413Z,677.00
2023-05-22T07:41:46.218Z,696.00
2023-05-22T07:42:47.247Z,710.00
2023-05-22T07:43:53.948Z,722.00
2023-05-22T07:44:46.224Z,733.00
2023-05-22T07:45:46.212Z,749.00
2023-05-22T07:46:49.379Z,763.00
2023-05-22T07:47:46.580Z,773.00
2023-05-22T07:48:46.185Z,806.00
2023-05-22T07:50:46.148Z,867.00
2023-05-22T07:51:47.195Z,876.00
2023-05-22T07:53:47.129Z,924.00
2023-05-22T07:54:46.530Z,934.00
2023-05-22T07:55:49.332Z,950.00
2023-05-22T07:56:53.523Z,971.00
2023-05-22T07:57:46.109Z,995.00
2023-05-22T07:58:46.768Z,1052.00
2023-05-22T07:59:46.097Z,1059.00
2023-05-22T08:00:46.088Z,1061.00
2023-05-22T08:01:46.087Z,1073.00
2023-05-22T08:02:46.651Z,1081.00
2023-05-22T08:03:46.667Z,1091.00
2023-05-22T08:04:46.167Z,1106.00
2023-05-22T08:05:46.614Z,1122.00
2023-05-22T08:06:46.286Z,1141.00
2023-05-22T08:07:46.054Z,1156.00
2023-05-22T08:08:46.555Z,1168.00
2023-05-22T08:09:46.075Z,1179.00
2023-05-22T08:11:01.708Z,1184.00
2023-05-22T08:11:46.034Z,1197.00
2023-05-22T08:12:46.010Z,1206.00
2023-05-22T08:13:46.039Z,1223.00
2023-05-22T08:14:46.032Z,1247.00
2023-05-22T08:15:46.995Z,1264.00
2023-05-22T08:16:46.018Z,1286.00
2023-05-22T08:17:45.996Z,1320.00
2023-05-22T08:18:46.092Z,1347.00
2023-05-22T08:19:46.104Z,1349.00
2023-05-22T08:20:45.959Z,1358.00
2023-05-22T08:21:45.957Z,1368.00
2023-05-22T08:22:49.169Z,1381.00
2023-05-22T08:23:46.044Z,1410.00
2023-05-22T08:24:45.936Z,1421.00
2023-05-22T08:25:45.968Z,1429.00
2023-05-22T08:26:45.932Z,1445.00
2023-05-22T08:27:45.919Z,1460.00
2023-05-22T08:28:46.368Z,1475.00
2023-05-22T08:29:45.907Z,1492.00
2023-05-22T08:30:46.235Z,1503.00
2023-05-22T08:31:45.979Z,1511.00
2023-05-22T08:33:56.731Z,1569.00
2023-05-22T08:34:57.726Z,1588.00
2023-05-22T08:35:57.716Z,1602.00
2023-05-22T08:36:57.728Z,1611.00
2023-05-22T08:37:57.706Z,1609.00
2023-05-22T08:38:57.916Z,1619.00
2023-05-22T08:39:57.693Z,1637.00
2023-05-22T08:41:05.079Z,1658.00
2023-05-22T08:41:57.681Z,1678.00
2023-05-22T08:42:57.666Z,1690.00
2023-05-22T08:43:57.975Z,1691.00
2023-05-22T08:44:58.652Z,1698.00
2023-05-22T08:45:57.675Z,1704.00
2023-05-22T08:46:57.682Z,1719.00
2023-05-22T08:47:58.967Z,1734.00
2023-05-22T08:48:57.631Z,1753.00
2023-05-22T08:49:57.619Z,1766.00
2023-05-22T08:51:00.801Z,1785.00
2023-05-22T08:51:57.627Z,1809.00
2023-05-22T08:52:57.923Z,1823.00
2023-05-22T08:53:57.588Z,1839.00
2023-05-22T08:54:57.579Z,1873.00
2023-05-22T08:56:00.788Z,1877.00
2023-05-22T08:56:57.797Z,1897.00
2023-05-22T08:57:57.921Z,1909.00
2023-05-22T08:58:57.611Z,1918.00
2023-05-22T08:59:58.543Z,1925.00
2023-05-22T09:00:57.616Z,1940.00
2023-05-22T09:01:57.586Z,1951.00
2023-05-22T09:02:58.088Z,1968.00
2023-05-22T09:03:57.990Z,1987.00
2023-05-22T09:04:57.529Z,1996.00
2023-05-22T09:05:57.514Z,2003.00
2023-05-22T09:06:57.927Z,2023.00
2023-05-22T09:08:02.742Z,2040.00
2023-05-22T09:08:57.507Z,2055.00
2023-05-22T09:09:58.487Z,2067.00
2023-05-22T09:10:57.492Z,2080.00
2023-05-22T09:11:57.959Z,2096.00
2023-05-22T09:12:57.469Z,2113.00
2023-05-22T09:13:57.460Z,2121.00
2023-05-22T09:14:57.458Z,2126.00
2023-05-22T09:15:57.453Z,2140.00
2023-05-22T09:16:57.481Z,2156.00
2023-05-22T09:17:57.547Z,2171.00
2023-05-22T09:18:57.486Z,2178.00
2023-05-22T09:19:57.417Z,2188.00
2023-05-22T09:20:57.966Z,2198.00
2023-05-22T09:21:57.942Z,2210.00
2023-05-22T09:22:57.564Z,2219.00
2023-05-22T09:23:57.605Z,2232.00
2023-05-22T09:24:57.620Z,2228.00
2023-05-22T09:25:57.890Z,2219.00
2023-05-22T09:26:57.941Z,2213.00
2023-05-22T09:27:57.593Z,2208.00
2023-05-22T09:28:57.962Z,2200.00
2023-05-22T09:29:57.723Z,2190.00
2023-05-22T09:30:57.674Z,2175.00
2023-05-22T09:31:57.636Z,2159.00
2023-05-22T09:33:00.840Z,2153.00
2023-05-22T09:34:57.618Z,2148.00
2023-05-22T09:36:00.790Z,2155.00
2023-05-22T09:36:57.582Z,2215.00
2023-05-22T09:37:57.581Z,2239.00
2023-05-22T09:38:57.591Z,2254.00
2023-05-22T09:39:58.507Z,2254.00
2023-05-22T09:41:13.152Z,2254.00
2023-05-22T09:41:57.545Z,2252.00
2023-05-22T09:42:57.565Z,2260.00
2023-05-22T09:44:02.080Z,2272.00
2023-05-22T09:44:57.553Z,2275.00
2023-05-22T09:45:57.580Z,2278.00
2023-05-22T09:46:57.956Z,2283.00
2023-05-22T09:47:57.803Z,2288.00
2023-05-22T09:48:57.540Z,2294.00
2023-05-22T09:49:57.497Z,2295.00
2023-05-22T09:50:57.490Z,2303.00
2023-05-22T09:51:57.482Z,2316.00
2023-05-22T09:52:57.954Z,2328.00
2023-05-22T09:53:58.951Z,2334.00
2023-05-22T09:54:57.522Z,2338.00
2023-05-22T09:55:58.544Z,2346.00
2023-05-22T09:56:57.544Z,2353.00
2023-05-22T09:57:57.538Z,2358.00
2023-05-22T09:58:57.967Z,2364.00
2023-05-22T09:59:57.569Z,2370.00
2023-05-22T10:01:04.997Z,2376.00
2023-05-22T10:01:57.669Z,2384.00
2023-05-22T10:02:57.587Z,2387.00
2023-05-22T10:03:57.640Z,2389.00
2023-05-22T10:04:57.641Z,2394.00
2023-05-22T10:05:57.550Z,2405.00
2023-05-22T10:06:58.569Z,2427.00
2023-05-22T10:07:57.961Z,2440.00
2023-05-22T10:08:57.531Z,2443.00
2023-05-22T10:09:57.999Z,2442.00
2023-05-22T10:10:57.515Z,2447.00
2023-05-22T10:11:57.508Z,2457.00
2023-05-22T10:12:57.981Z,2462.00
2023-05-22T10:13:57.524Z,2472.00
2023-05-22T10:14:57.482Z,2475.00
2023-05-22T10:15:57.511Z,2479.00
2023-05-22T10:16:57.478Z,2490.00
2023-05-22T10:17:57.511Z,2505.00
2023-05-22T10:18:57.522Z,2510.00
2023-05-22T10:19:57.542Z,2506.00
2023-05-22T10:20:57.710Z,2502.00
2023-05-22T10:21:57.637Z,2496.00
2023-05-22T10:22:57.972Z,2489.00
2023-05-22T10:23:57.730Z,2483.00
2023-05-22T10:24:57.972Z,2475.00
2023-05-22T10:25:57.660Z,2468.00
2023-05-22T10:26:57.670Z,2457.00
2023-05-22T10:27:57.968Z,2450.00
2023-05-22T10:28:57.661Z,2446.00
2023-05-22T10:30:05.150Z,2448.00
2023-05-22T10:30:57.677Z,2450.00
2023-05-22T10:31:57.658Z,2450.00
2023-05-22T10:32:57.698Z,2451.00
2023-05-22T10:33:58.049Z,2446.00
2023-05-22T10:34:57.625Z,2441.00
2023-05-22T10:35:57.632Z,2441.00
2023-05-22T10:37:09.535Z,2442.00
2023-05-22T10:37:58.001Z,2439.00
2023-05-22T10:38:57.640Z,2436.00
2023-05-22T10:39:57.602Z,2430.00
2023-05-22T10:40:57.586Z,2426.00
2023-05-22T10:41:57.580Z,2426.00
2023-05-22T10:42:57.569Z,2425.00
2023-05-22T10:43:57.573Z,2427.00
2023-05-22T10:44:57.558Z,2427.00
2023-05-22T10:45:58.013Z,2427.00
2023-05-22T10:46:57.545Z,2426.00
2023-05-22T10:47:57.560Z,2421.00
2023-05-22T10:48:57.532Z,2420.00
2023-05-22T10:49:57.987Z,2420.00
2023-05-22T10:50:59.245Z,2415.00
2023-05-22T10:51:57.606Z,2415.00
2023-05-22T10:52:57.525Z,2416.00
2023-05-22T10:53:57.514Z,2419.00
2023-05-22T10:54:57.490Z,2418.00
2023-05-22T10:55:57.492Z,2412.00
2023-05-22T10:56:57.472Z,2410.00
2023-05-22T10:57:57.489Z,2403.00
2023-05-22T10:58:57.470Z,2394.00
2023-05-22T10:59:57.475Z,2395.00
2023-05-22T11:00:57.453Z,2392.00
2023-05-22T11:01:57.541Z,2390.00
2023-05-22T11:03:03.403Z,2386.00
2023-05-22T11:03:57.487Z,2385.00
2023-05-22T11:04:57.434Z,2383.00
2023-05-22T11:05:57.425Z,2383.00
2023-05-22T11:06:57.408Z,2383.00
2023-05-22T11:07:57.497Z,2380.00
2023-05-22T11:08:57.575Z,2375.00
2023-05-22T11:09:57.387Z,2375.00
2023-05-22T11:10:57.384Z,2373.00
2023-05-22T11:11:57.371Z,2369.00
2023-05-22T11:12:57.485Z,2365.00
2023-05-22T11:13:57.539Z,2362.00
2023-05-22T11:14:57.359Z,2356.00
2023-05-22T11:15:57.357Z,2358.00
2023-05-22T11:16:57.376Z,2357.00
2023-05-22T11:17:58.030Z,2358.00
2023-05-22T11:18:58.849Z,2361.00
2023-05-22T11:19:57.557Z,2363.00
2023-05-22T11:20:57.452Z,2363.00
2023-05-22T11:21:57.465Z,2363.00
2023-05-22T11:22:57.529Z,2361.00
2023-05-22T11:23:57.471Z,2359.00
2023-05-22T11:24:57.621Z,2356.00
2023-05-22T11:25:57.469Z,2353.00
2023-05-22T11:26:57.489Z,2349.00
2023-05-22T11:27:57.532Z,2341.00
2023-05-22T11:28:57.530Z,2338.00
2023-05-22T11:29:58.001Z,2337.00
2023-05-22T11:30:57.623Z,2336.00
2023-05-22T11:31:57.561Z,2333.00
2023-05-22T11:32:58.761Z,2333.00
2023-05-22T11:33:57.576Z,2337.00
2023-05-22T11:34:58.565Z,2336.00
2023-05-22T11:35:57.593Z,2337.00
2023-05-22T11:36:57.587Z,2336.00
2023-05-22T11:37:57.583Z,2335.00
2023-05-22T11:38:58.002Z,2336.00
2023-05-22T11:39:57.638Z,2338.00
2023-05-22T11:40:57.740Z,2339.00
2023-05-22T11:41:57.644Z,2339.00
2023-05-22T11:42:57.648Z,2338.00
2023-05-22T11:43:57.659Z,2335.00
2023-05-22T11:44:57.676Z,2335.00
2023-05-22T11:45:57.714Z,2337.00
2023-05-22T11:46:57.707Z,2336.00
2023-05-22T11:47:57.804Z,2337.00
2023-05-22T11:48:58.031Z,2338.00
2023-05-22T11:49:57.748Z,2340.00
2023-05-22T11:50:57.715Z,2340.00
2023-05-22T11:51:57.731Z,2341.00
2023-05-22T11:52:57.755Z,2341.00
2023-05-22T11:53:58.007Z,2341.00
2023-05-22T11:54:57.797Z,2338.00
2023-05-22T11:55:57.803Z,2337.00
2023-05-22T11:56:57.928Z,2335.00
2023-05-22T11:58:01.202Z,2339.00
2023-05-22T11:58:57.821Z,2335.00
2023-05-22T11:59:57.824Z,2334.00
2023-05-22T12:00:57.804Z,2331.00
2023-05-22T12:02:01.220Z,2334.00
2023-05-22T12:02:57.937Z,2340.00
2023-05-22T12:03:57.920Z,2339.00
2023-05-22T12:04:57.773Z,2337.00
2023-05-22T12:05:57.784Z,2338.00
2023-05-22T12:06:58.055Z,2339.00
2023-05-22T12:07:57.754Z,2337.00
2023-05-22T12:08:58.015Z,2339.00
2023-05-22T12:09:57.738Z,2338.00
2023-05-22T12:10:58.007Z,2330.00
2023-05-22T12:11:57.992Z,2322.00
2023-05-22T12:12:57.758Z,2317.00
2023-05-22T12:13:57.707Z,2319.00
2023-05-22T12:14:57.703Z,2319.00
2023-05-22T12:15:57.720Z,2316.00
2023-05-22T12:16:57.724Z,2316.00
2023-05-22T12:17:57.762Z,2310.00
2023-05-22T12:18:59.068Z,2314.00
2023-05-22T12:19:57.680Z,2313.00
2023-05-22T12:20:57.665Z,2315.00
2023-05-22T12:21:57.668Z,2318.00
2023-05-22T12:22:57.649Z,2322.00
2023-05-22T12:24:01.205Z,2317.00
2023-05-22T12:24:57.625Z,2318.00
2023-05-22T12:25:57.633Z,2320.00
2023-05-22T12:26:57.619Z,2317.00
2023-05-22T12:27:57.623Z,2317.00
2023-05-22T12:28:58.936Z,2318.00